Time;durP1;ratioP1;P1;durP2;ratioP2;P2;SDS_P1;SDS_P2;PMS_P1;PMS_P2;Temp;Humidity;BMP_temperature;BMP_pressure;BME280_temperature;BME280_humidity;BME280_pressure;Samples;Min_cycle;Max_cycle;Signal;HPM_P1;HPM_P2
2021/11/19 00:00:34;;;;;;;8.87;6.53;;;;;;;;;;4955105;29;20198;-85
2021/11/19 00:03:01;;;;;;;7.93;6.30;;;;;;;;;;5182686;23;20241;-86
2021/11/19 00:05:28;;;;;;;8.33;6.27;;;;;;;;;;4972317;28;20207;-86
2021/11/19 00:07:56;;;;;;;7.77;5.63;;;;;;;;;;4962649;28;20220;-86
2021/11/19 00:10:24;;;;;;;9.07;6.60;;;;;;;;;;4954983;29;20233;-86
2021/11/19 00:12:53;;;;;;;7.00;5.70;;;;;;;;;;4963567;28;20208;-86
2021/11/19 00:15:21;;;;;;;8.37;6.23;;;;;;;;;;4974319;28;20296;-87
2021/11/19 00:17:48;;;;;;;7.07;5.90;;;;;;;;;;4974926;28;20644;-86
2021/11/19 00:20:18;;;;;;;9.73;6.80;;;;;;;;;;4974178;28;20197;-86
2021/11/19 00:22:46;;;;;;;6.90;5.90;;;;;;;;;;4974282;28;20193;-86
2021/11/19 00:25:13;;;;;;;10.07;5.80;;;;;;;;;;4974446;28;20707;-86
2021/11/19 00:27:40;;;;;;;8.53;5.63;;;;;;;;;;4974168;28;20685;-85
2021/11/19 00:30:13;;;;;;;6.50;5.37;;;;;;;;;;4973866;28;20241;-86
2021/11/19 00:32:40;;;;;;;7.17;5.70;;;;;;;;;;4974428;28;20185;-86
2021/11/19 00:35:10;;;;;;;8.03;6.03;;;;;;;;;;4974333;28;20205;-86
2021/11/19 00:37:38;;;;;;;6.83;5.63;;;;;;;;;;4974339;28;20205;-86
2021/11/19 00:40:08;;;;;;;6.80;5.83;;;;;;;;;;4974226;28;20241;-86
2021/11/19 00:42:36;;;;;;;7.80;6.00;;;;;;;;;;4974069;28;20197;-86
2021/11/19 00:45:03;;;;;;;7.13;5.80;;;;;;;;;;4973959;28;20212;-86
2021/11/19 00:47:32;;;;;;;5.90;4.77;;;;;;;;;;4973919;28;20205;-86
2021/11/19 00:50:00;;;;;;;6.80;5.03;;;;;;;;;;4974016;28;20205;-86
2021/11/19 00:52:28;;;;;;;8.50;5.33;;;;;;;;;;4973739;28;20221;-86
2021/11/19 00:54:55;;;;;;;6.70;5.40;;;;;;;;;;4974194;28;20693;-86
2021/11/19 00:57:23;;;;;;;6.00;5.20;;;;;;;;;;4973967;28;20624;-86
2021/11/19 00:59:51;;;;;;;6.00;5.30;;;;;;;;;;4973738;28;20201;-86
2021/11/19 01:02:20;;;;;;;5.70;5.07;;;;;;;;;;4972952;28;20233;-86
2021/11/19 01:04:49;;;;;;;6.57;5.27;;;;;;;;;;4973631;28;20665;-85
2021/11/19 01:07:19;;;;;;;6.63;5.63;;;;;;;;;;4973512;28;20201;-86
2021/11/19 01:09:48;;;;;;;6.40;4.70;;;;;;;;;;4973513;28;20649;-86
2021/11/19 01:12:18;;;;;;;6.93;5.10;;;;;;;;;;4973404;28;20228;-86
2021/11/19 01:14:47;;;;;;;6.40;5.07;;;;;;;;;;4973274;28;20275;-86
2021/11/19 01:17:18;;;;;;;5.10;4.53;;;;;;;;;;4973735;28;20292;-86
2021/11/19 01:19:50;;;;;;;5.23;4.50;;;;;;;;;;4973257;28;20189;-86
2021/11/19 01:22:20;;;;;;;5.37;4.53;;;;;;;;;;4973403;28;20240;-86
2021/11/19 01:24:48;;;;;;;5.53;4.50;;;;;;;;;;4973848;28;20228;-86
2021/11/19 01:27:16;;;;;;;4.83;4.17;;;;;;;;;;4973286;28;20236;-86
2021/11/19 01:29:44;;;;;;;6.77;5.03;;;;;;;;;;4973197;28;20193;-86
2021/11/19 01:32:14;;;;;;;8.13;5.70;;;;;;;;;;4973221;28;20221;-86
2021/11/19 01:34:41;;;;;;;5.07;4.00;;;;;;;;;;4973531;28;20181;-86
2021/11/19 01:37:11;;;;;;;5.63;4.93;;;;;;;;;;4973357;28;20205;-85
2021/11/19 01:39:39;;;;;;;4.47;4.00;;;;;;;;;;4973285;28;20232;-86
2021/11/19 01:42:22;;;;;;;3.97;3.57;;;;;;;;;;4973075;28;20209;-86
2021/11/19 01:44:57;;;;;;;5.23;3.70;;;;;;;;;;4973241;28;20193;-86
2021/11/19 01:47:25;;;;;;;6.03;3.67;;;;;;;;;;4973314;28;20188;-86
2021/11/19 01:49:53;;;;;;;3.83;3.30;;;;;;;;;;4973209;28;20197;-85
2021/11/19 01:52:28;;;;;;;4.23;3.30;;;;;;;;;;4973146;28;20613;-86
2021/11/19 01:54:59;;;;;;;3.33;3.03;;;;;;;;;;4973220;28;20196;-85
2021/11/19 01:57:29;;;;;;;4.63;3.60;;;;;;;;;;4973213;28;20193;-86
2021/11/19 01:59:59;;;;;;;4.97;4.30;;;;;;;;;;4973056;28;20252;-86
2021/11/19 02:02:34;;;;;;;4.90;3.83;;;;;;;;;;4972878;28;20237;-86
2021/11/19 02:05:06;;;;;;;5.20;3.40;;;;;;;;;;4972813;28;20200;-86
2021/11/19 02:07:44;;;;;;;6.13;4.43;;;;;;;;;;4973021;28;20185;-86
2021/11/19 02:10:17;;;;;;;6.13;3.97;;;;;;;;;;4973421;28;20185;-86
2021/11/19 02:13:01;;;;;;;4.47;3.50;;;;;;;;;;4973172;28;20585;-86
2021/11/19 02:15:31;;;;;;;3.87;3.57;;;;;;;;;;4976733;28;20641;-86
2021/11/19 02:18:03;;;;;;;3.17;2.80;;;;;;;;;;4977379;28;20197;-86
2021/11/19 02:20:34;;;;;;;3.00;2.70;;;;;;;;;;4976595;28;20185;-86
2021/11/19 02:23:08;;;;;;;4.23;3.40;;;;;;;;;;4976906;28;20194;-86
2021/11/19 02:25:38;;;;;;;4.10;3.40;;;;;;;;;;4976821;28;20220;-84
2021/11/19 02:28:08;;;;;;;3.53;2.40;;;;;;;;;;4976825;28;20646;-86
2021/11/19 02:30:44;;;;;;;3.17;2.73;;;;;;;;;;4976352;28;20201;-85
2021/11/19 02:33:13;;;;;;;3.50;2.83;;;;;;;;;;4976850;28;20646;-85
2021/11/19 02:35:50;;;;;;;2.90;2.70;;;;;;;;;;4976160;28;20284;-86
2021/11/19 02:38:20;;;;;;;3.97;2.40;;;;;;;;;;4976320;28;20227;-86
2021/11/19 02:40:50;;;;;;;3.90;2.70;;;;;;;;;;4976033;28;20247;-86
2021/11/19 02:43:24;;;;;;;4.40;3.20;;;;;;;;;;4976178;28;20205;-85
2021/11/19 02:45:53;;;;;;;3.30;2.87;;;;;;;;;;4976295;28;20207;-85
2021/11/19 02:48:23;;;;;;;3.20;2.90;;;;;;;;;;4976100;28;20622;-86
2021/11/19 02:50:52;;;;;;;3.13;2.77;;;;;;;;;;4975950;28;20259;-85
2021/11/19 02:53:21;;;;;;;3.40;2.67;;;;;;;;;;4976331;28;20267;-86
2021/11/19 02:55:51;;;;;;;3.40;3.10;;;;;;;;;;4975893;28;20201;-85
2021/11/19 02:58:28;;;;;;;3.17;2.77;;;;;;;;;;4975862;28;20201;-86
2021/11/19 03:01:08;;;;;;;3.40;3.10;;;;;;;;;;4976029;28;20200;-86
2021/11/19 03:03:36;;;;;;;4.80;3.57;;;;;;;;;;4975856;28;20264;-86
2021/11/19 03:06:04;;;;;;;4.17;2.43;;;;;;;;;;4975686;28;20295;-85
2021/11/19 03:08:34;;;;;;;3.60;2.93;;;;;;;;;;4975795;28;20201;-86
2021/11/19 03:11:01;;;;;;;3.60;2.93;;;;;;;;;;4975814;28;20255;-85
2021/11/19 03:13:33;;;;;;;3.50;3.20;;;;;;;;;;4975578;28;20204;-86
2021/11/19 03:16:00;;;;;;;3.20;2.90;;;;;;;;;;4975914;28;20197;-86
2021/11/19 03:18:29;;;;;;;3.13;2.83;;;;;;;;;;4975638;28;20243;-86
2021/11/19 03:20:58;;;;;;;4.83;3.00;;;;;;;;;;4975398;28;20201;-85
2021/11/19 03:23:27;;;;;;;3.67;3.10;;;;;;;;;;4975255;28;20420;-85
2021/11/19 03:25:57;;;;;;;3.73;2.93;;;;;;;;;;4975095;28;20228;-85
2021/11/19 03:28:26;;;;;;;5.10;3.43;;;;;;;;;;4975303;28;20205;-85
2021/11/19 03:30:59;;;;;;;3.17;2.87;;;;;;;;;;4975129;28;20197;-85
2021/11/19 03:33:30;;;;;;;3.40;3.10;;;;;;;;;;4975232;28;20186;-85
2021/11/19 03:35:57;;;;;;;3.90;3.60;;;;;;;;;;4975002;28;20201;-85
2021/11/19 03:38:27;;;;;;;4.60;4.03;;;;;;;;;;4975146;28;20212;-85
2021/11/19 03:40:58;;;;;;;4.60;4.07;;;;;;;;;;4975152;28;20280;-85
2021/11/19 03:43:35;;;;;;;5.43;4.10;;;;;;;;;;4975137;28;20200;-85
2021/11/19 03:46:06;;;;;;;4.67;3.93;;;;;;;;;;4974626;28;20280;-84
2021/11/19 03:48:34;;;;;;;5.43;4.30;;;;;;;;;;4975005;28;20194;-85
2021/11/19 03:51:04;;;;;;;5.40;4.90;;;;;;;;;;4974977;28;20203;-85
2021/11/19 03:53:31;;;;;;;4.77;4.27;;;;;;;;;;4974766;28;20220;-87
2021/11/19 03:56:01;;;;;;;6.63;5.20;;;;;;;;;;4974425;28;20212;-85
2021/11/19 03:58:30;;;;;;;5.97;5.33;;;;;;;;;;4974808;28;20661;-87
2021/11/19 04:01:00;;;;;;;5.30;4.53;;;;;;;;;;4974291;28;20240;-87
2021/11/19 04:03:28;;;;;;;5.63;4.83;;;;;;;;;;4974172;28;20335;-84
2021/11/19 04:05:55;;;;;;;6.00;4.50;;;;;;;;;;4973829;28;20255;-84
2021/11/19 04:08:23;;;;;;;5.57;5.07;;;;;;;;;;4973941;28;20251;-87
2021/11/19 04:10:50;;;;;;;11.50;7.97;;;;;;;;;;4973531;28;20765;-85
2021/11/19 04:13:19;;;;;;;9.80;8.80;;;;;;;;;;4968740;28;20279;-85
2021/11/19 04:15:52;;;;;;;7.13;5.80;;;;;;;;;;4972780;28;20248;-85
2021/11/19 04:18:19;;;;;;;7.80;6.43;;;;;;;;;;4973973;28;20286;-85
2021/11/19 04:20:48;;;;;;;8.07;6.27;;;;;;;;;;4973756;28;20299;-86
2021/11/19 04:23:16;;;;;;;9.80;5.90;;;;;;;;;;4974264;28;20271;-86
2021/11/19 04:25:44;;;;;;;6.63;5.87;;;;;;;;;;4971644;28;20680;-88
2021/11/19 04:28:12;;;;;;;6.60;5.70;;;;;;;;;;4972568;28;20209;-88
2021/11/19 04:30:46;;;;;;;8.97;7.67;;;;;;;;;;4974820;28;20201;-88
2021/11/19 04:33:15;;;;;;;11.47;7.80;;;;;;;;;;4974307;28;20207;-87
2021/11/19 04:35:55;;;;;;;14.83;12.20;;;;;;;;;;4973284;28;20224;-86
2021/11/19 04:38:24;;;;;;;10.93;9.57;;;;;;;;;;4974287;28;20670;-87
2021/11/19 04:40:52;;;;;;;9.47;8.43;;;;;;;;;;4973663;28;20587;-86
2021/11/19 04:43:20;;;;;;;6.40;5.80;;;;;;;;;;4974035;28;20773;-86
2021/11/19 04:45:49;;;;;;;12.03;6.87;;;;;;;;;;4974023;28;20201;-87
2021/11/19 04:48:17;;;;;;;8.83;6.27;;;;;;;;;;4974188;28;20197;-86
2021/11/19 04:50:46;;;;;;;9.27;6.23;;;;;;;;;;4973999;28;20231;-86
2021/11/19 04:53:15;;;;;;;7.63;6.33;;;;;;;;;;4973596;28;20228;-87
2021/11/19 04:55:43;;;;;;;6.27;5.43;;;;;;;;;;4973891;28;20578;-87
2021/11/19 04:58:10;;;;;;;7.23;5.67;;;;;;;;;;4973873;28;20284;-86
2021/11/19 05:00:40;;;;;;;6.33;5.43;;;;;;;;;;4974148;28;20201;-87
2021/11/19 05:03:09;;;;;;;9.37;6.07;;;;;;;;;;4973391;28;20264;-87
2021/11/19 05:05:37;;;;;;;5.97;5.40;;;;;;;;;;4973493;28;20201;-88
2021/11/19 05:08:06;;;;;;;7.27;5.80;;;;;;;;;;4973782;28;20200;-87
2021/11/19 05:10:35;;;;;;;8.63;6.23;;;;;;;;;;4973869;28;20251;-87
2021/11/19 05:13:04;;;;;;;8.07;5.73;;;;;;;;;;4973679;28;20319;-87
2021/11/19 05:15:32;;;;;;;7.30;5.13;;;;;;;;;;4973843;28;20207;-87
2021/11/19 05:17:59;;;;;;;7.83;5.77;;;;;;;;;;4973887;28;20690;-87
2021/11/19 05:20:28;;;;;;;8.30;5.73;;;;;;;;;;4973728;28;21061;-87
2021/11/19 05:22:56;;;;;;;9.50;7.00;;;;;;;;;;4973724;28;20255;-88
2021/11/19 05:25:28;;;;;;;8.37;6.40;;;;;;;;;;4973492;28;20240;-87
2021/11/19 05:27:57;;;;;;;8.73;7.23;;;;;;;;;;4973859;28;20563;-88
2021/11/19 05:30:24;;;;;;;11.10;8.13;;;;;;;;;;4973933;28;20200;-87
2021/11/19 05:32:52;;;;;;;9.30;7.57;;;;;;;;;;4973634;28;20229;-87
2021/11/19 05:35:20;;;;;;;7.33;5.37;;;;;;;;;;4973439;28;20295;-87
2021/11/19 05:37:49;;;;;;;7.63;5.33;;;;;;;;;;4973687;28;20267;-87
2021/11/19 05:40:18;;;;;;;9.63;6.40;;;;;;;;;;4973874;28;20733;-87
2021/11/19 05:42:46;;;;;;;6.07;5.17;;;;;;;;;;4974010;28;20204;-87
2021/11/19 05:45:15;;;;;;;6.50;5.53;;;;;;;;;;4973676;28;20205;-88
2021/11/19 05:47:43;;;;;;;9.37;6.97;;;;;;;;;;4974950;28;20255;-87
2021/11/19 05:50:12;;;;;;;5.37;4.87;;;;;;;;;;4977460;28;20251;-87
2021/11/19 05:52:40;;;;;;;6.00;5.10;;;;;;;;;;4977409;28;20228;-86
2021/11/19 05:55:12;;;;;;;10.17;7.57;;;;;;;;;;4978003;28;20237;-88
2021/11/19 05:57:40;;;;;;;19.37;15.73;;;;;;;;;;4977767;28;20271;-87
2021/11/19 06:00:11;;;;;;;13.60;12.00;;;;;;;;;;4977145;28;20259;-87
2021/11/19 06:02:38;;;;;;;9.70;8.80;;;;;;;;;;4977265;28;20623;-88
2021/11/19 06:05:06;;;;;;;8.63;6.70;;;;;;;;;;4977263;28;20251;-87
2021/11/19 06:07:34;;;;;;;7.20;6.50;;;;;;;;;;4977233;28;20200;-87
2021/11/19 06:10:02;;;;;;;7.00;5.80;;;;;;;;;;4977241;28;20232;-85
2021/11/19 06:12:34;;;;;;;13.67;6.57;;;;;;;;;;4976877;28;20319;-87
2021/11/19 06:15:05;;;;;;;7.57;6.13;;;;;;;;;;4977039;28;20185;-87
2021/11/19 06:17:36;;;;;;;5.93;5.13;;;;;;;;;;4977065;28;20185;-87
2021/11/19 06:20:20;;;;;;;7.13;5.50;;;;;;;;;;4977007;28;20189;-87
2021/11/19 06:22:51;;;;;;;7.97;7.17;;;;;;;;;;4976674;28;20193;-87
2021/11/19 06:25:22;;;;;;;6.23;5.63;;;;;;;;;;4977007;28;20189;-87
2021/11/19 06:27:51;;;;;;;9.30;5.43;;;;;;;;;;4976652;28;20193;-87
2021/11/19 06:30:21;;;;;;;5.43;5.00;;;;;;;;;;4976602;28;20235;-87
2021/11/19 06:32:49;;;;;;;5.23;4.70;;;;;;;;;;4976546;28;20284;-87
2021/11/19 06:35:16;;;;;;;9.40;5.60;;;;;;;;;;4976549;28;20292;-87
2021/11/19 06:37:44;;;;;;;6.00;4.90;;;;;;;;;;4976933;28;20681;-87
2021/11/19 06:40:14;;;;;;;5.90;5.30;;;;;;;;;;4976609;28;20220;-86
2021/11/19 06:42:42;;;;;;;8.80;7.27;;;;;;;;;;4976332;28;20189;-87
2021/11/19 06:45:14;;;;;;;13.03;8.50;;;;;;;;;;4976319;28;20200;-87
2021/11/19 06:47:42;;;;;;;11.53;8.90;;;;;;;;;;4976392;28;20193;-88
2021/11/19 06:50:10;;;;;;;6.60;5.87;;;;;;;;;;4976497;28;20217;-87
2021/11/19 06:52:37;;;;;;;14.70;11.40;;;;;;;;;;4976329;28;20235;-87
2021/11/19 06:55:06;;;;;;;9.60;7.60;;;;;;;;;;4976640;28;20205;-86
2021/11/19 06:57:33;;;;;;;10.63;8.97;;;;;;;;;;4976413;28;20232;-87
2021/11/19 07:00:00;;;;;;;13.13;9.47;;;;;;;;;;4975358;28;20201;-87
2021/11/19 07:02:29;;;;;;;11.17;9.23;;;;;;;;;;4976246;28;20291;-87
2021/11/19 07:04:56;;;;;;;11.40;8.27;;;;;;;;;;4976233;28;20189;-87
2021/11/19 07:07:24;;;;;;;10.53;8.40;;;;;;;;;;4976067;28;20236;-87
2021/11/19 07:09:51;;;;;;;10.87;6.03;;;;;;;;;;4976184;28;20624;-87
2021/11/19 07:12:18;;;;;;;13.53;9.07;;;;;;;;;;4976077;28;20669;-87
2021/11/19 07:14:46;;;;;;;9.57;7.43;;;;;;;;;;4976160;28;20641;-87
2021/11/19 07:17:13;;;;;;;9.10;6.80;;;;;;;;;;4975851;28;20693;-87
2021/11/19 07:19:43;;;;;;;17.57;8.73;;;;;;;;;;4975615;28;20666;-86
2021/11/19 07:22:10;;;;;;;19.93;15.47;;;;;;;;;;4975822;28;20296;-86
2021/11/19 07:24:39;;;;;;;11.80;9.90;;;;;;;;;;4976016;28;20259;-87
2021/11/19 07:27:06;;;;;;;10.43;9.10;;;;;;;;;;4974854;28;20298;-86
2021/11/19 07:29:34;;;;;;;10.57;8.67;;;;;;;;;;4975443;28;20622;-87
2021/11/19 07:32:02;;;;;;;7.53;6.13;;;;;;;;;;4975498;28;20670;-87
2021/11/19 07:34:29;;;;;;;8.17;6.70;;;;;;;;;;4975326;28;20708;-86
2021/11/19 07:36:58;;;;;;;12.23;7.80;;;;;;;;;;4975197;28;20201;-86
2021/11/19 07:39:26;;;;;;;11.83;6.43;;;;;;;;;;4975780;28;20197;-87
2021/11/19 07:41:53;;;;;;;6.87;5.30;;;;;;;;;;4975496;28;20201;-86
2021/11/19 07:44:21;;;;;;;5.63;5.13;;;;;;;;;;4975166;28;20204;-86
2021/11/19 07:46:48;;;;;;;8.63;6.37;;;;;;;;;;4975508;28;20635;-86
2021/11/19 07:49:15;;;;;;;8.17;6.70;;;;;;;;;;4975833;28;20585;-87
2021/11/19 07:51:45;;;;;;;9.50;6.03;;;;;;;;;;4975258;28;20193;-87
2021/11/19 07:54:14;;;;;;;7.77;5.90;;;;;;;;;;4975027;28;20225;-86
2021/11/19 07:56:41;;;;;;;8.77;6.67;;;;;;;;;;4975366;28;20193;-86
2021/11/19 07:59:11;;;;;;;9.53;7.00;;;;;;;;;;4974935;28;20205;-87
2021/11/19 08:01:39;;;;;;;9.63;6.40;;;;;;;;;;4974799;28;20241;-86
2021/11/19 08:04:07;;;;;;;10.07;7.10;;;;;;;;;;4975052;28;20709;-86
2021/11/19 08:06:35;;;;;;;5.67;5.10;;;;;;;;;;4974838;28;20201;-86
2021/11/19 08:09:03;;;;;;;11.10;5.33;;;;;;;;;;4975254;28;20232;-86
2021/11/19 08:11:31;;;;;;;6.67;5.57;;;;;;;;;;4975107;28;20197;-87
2021/11/19 08:13:59;;;;;;;5.93;5.33;;;;;;;;;;4974679;28;20308;-86
2021/11/19 08:16:26;;;;;;;6.07;5.37;;;;;;;;;;4975178;28;20260;-86
2021/11/19 08:18:57;;;;;;;6.93;6.23;;;;;;;;;;4974764;28;20288;-87
2021/11/19 08:21:26;;;;;;;5.73;5.13;;;;;;;;;;4975188;28;20636;-86
2021/11/19 08:23:56;;;;;;;9.13;5.83;;;;;;;;;;4974857;28;20252;-87
2021/11/19 08:26:27;;;;;;;6.70;5.20;;;;;;;;;;4974877;28;20201;-87
2021/11/19 08:28:56;;;;;;;6.67;5.33;;;;;;;;;;4974913;28;20197;-87
2021/11/19 08:31:24;;;;;;;6.00;5.37;;;;;;;;;;4974366;28;20295;-87
2021/11/19 08:33:52;;;;;;;9.87;5.33;;;;;;;;;;4974381;28;20224;-86
2021/11/19 08:36:21;;;;;;;5.70;5.10;;;;;;;;;;4974308;28;20662;-86
2021/11/19 08:38:49;;;;;;;9.90;8.10;;;;;;;;;;4974450;28;20213;-87
2021/11/19 08:41:17;;;;;;;5.77;5.10;;;;;;;;;;4974509;28;20251;-86
2021/11/19 08:43:46;;;;;;;10.03;5.70;;;;;;;;;;4974321;28;20204;-87
2021/11/19 08:46:20;;;;;;;6.03;5.27;;;;;;;;;;4974649;28;20228;-87
2021/11/19 08:48:49;;;;;;;7.77;5.30;;;;;;;;;;4974104;28;20248;-86
2021/11/19 08:51:19;;;;;;;5.83;4.93;;;;;;;;;;4974021;28;20287;-86
2021/11/19 08:53:48;;;;;;;8.60;5.40;;;;;;;;;;4974419;28;20234;-86
2021/11/19 08:56:15;;;;;;;12.57;6.10;;;;;;;;;;4974321;28;20386;-87
2021/11/19 08:58:44;;;;;;;7.20;5.43;;;;;;;;;;4974152;28;20189;-86
2021/11/19 09:01:13;;;;;;;5.63;5.03;;;;;;;;;;4973698;28;20239;-86
2021/11/19 09:03:42;;;;;;;14.23;8.73;;;;;;;;;;4974073;28;20312;-86
2021/11/19 09:06:11;;;;;;;6.37;5.50;;;;;;;;;;4974114;28;20197;-85
2021/11/19 09:08:40;;;;;;;6.63;4.67;;;;;;;;;;4973834;28;20197;-87
2021/11/19 09:11:09;;;;;;;6.33;4.80;;;;;;;;;;4973546;28;20293;-87
2021/11/19 09:13:37;;;;;;;7.40;4.93;;;;;;;;;;4974750;28;20284;-87
2021/11/19 09:16:07;;;;;;;9.67;4.67;;;;;;;;;;4974042;28;20201;-88
2021/11/19 09:18:41;;;;;;;5.50;4.97;;;;;;;;;;4973999;28;20248;-87
2021/11/19 09:21:17;;;;;;;6.40;3.77;;;;;;;;;;4973696;28;20192;-86
2021/11/19 09:23:48;;;;;;;5.63;4.37;;;;;;;;;;4973471;28;20212;-87
2021/11/19 09:26:17;;;;;;;7.13;5.13;;;;;;;;;;4973547;28;20197;-87
2021/11/19 09:28:47;;;;;;;8.10;4.67;;;;;;;;;;4973586;28;20247;-87
2021/11/19 09:31:17;;;;;;;5.10;4.13;;;;;;;;;;4973766;28;20193;-87
2021/11/19 09:33:45;;;;;;;23.43;8.30;;;;;;;;;;4973678;28;20220;-87
2021/11/19 09:36:14;;;;;;;6.47;5.27;;;;;;;;;;4973742;28;20654;-87
2021/11/19 09:38:41;;;;;;;7.83;5.00;;;;;;;;;;4973695;28;20279;-87
2021/11/19 09:41:40;;;;;;;4.83;4.33;;;;;;;;;;4973413;28;20334;-87
2021/11/19 09:44:24;;;;;;;6.53;4.80;;;;;;;;;;4973643;28;20185;-87
2021/11/19 09:47:18;;;;;;;5.47;4.73;;;;;;;;;;4973132;28;20193;-87
2021/11/19 09:50:29;;;;;;;4.77;4.37;;;;;;;;;;4973424;28;20251;-87
2021/11/19 09:53:23;;;;;;;6.13;4.40;;;;;;;;;;4973475;28;20244;-87
2021/11/19 09:56:01;;;;;;;4.10;3.70;;;;;;;;;;4973704;28;20621;-87
2021/11/19 09:58:41;;;;;;;5.40;4.23;;;;;;;;;;4973315;28;20201;-87
2021/11/19 10:01:32;;;;;;;4.33;3.93;;;;;;;;;;4973309;28;20232;-86
2021/11/19 10:04:35;;;;;;;5.70;3.93;;;;;;;;;;4934619;28;20759;-87
2021/11/19 10:07:07;;;;;;;5.40;4.90;;;;;;;;;;4969413;28;20295;-87
2021/11/19 10:09:39;;;;;;;8.03;5.20;;;;;;;;;;4973788;28;20285;-86
2021/11/19 10:12:16;;;;;;;5.27;4.10;;;;;;;;;;4973177;28;20212;-86
2021/11/19 10:14:50;;;;;;;4.80;4.13;;;;;;;;;;4973091;28;20220;-86
2021/11/19 10:17:27;;;;;;;5.50;4.47;;;;;;;;;;4973128;28;20578;-86
2021/11/19 10:19:59;;;;;;;4.90;4.40;;;;;;;;;;4973537;28;20600;-86
2021/11/19 10:22:31;;;;;;;5.03;4.47;;;;;;;;;;4973039;28;20236;-86
2021/11/19 10:25:08;;;;;;;4.53;4.13;;;;;;;;;;4973489;28;20613;-86
2021/11/19 10:27:38;;;;;;;6.43;4.27;;;;;;;;;;4973443;28;20220;-87
2021/11/19 10:30:13;;;;;;;7.30;3.63;;;;;;;;;;4969413;28;20197;-86
2021/11/19 10:32:40;;;;;;;4.87;4.00;;;;;;;;;;4971325;28;20228;-86
2021/11/19 10:35:29;;;;;;;4.63;4.13;;;;;;;;;;4966981;28;20309;-86
2021/11/19 10:38:08;;;;;;;5.23;4.73;;;;;;;;;;4957418;28;20225;-86
2021/11/19 10:41:03;;;;;;;4.77;4.30;;;;;;;;;;4956980;29;20659;-86
2021/11/19 10:44:05;;;;;;;8.77;4.60;;;;;;;;;;4957329;28;20186;-86
2021/11/19 10:47:06;;;;;;;5.07;4.57;;;;;;;;;;4957130;29;20232;-86
2021/11/19 10:50:07;;;;;;;4.60;3.67;;;;;;;;;;4956569;29;20192;-85
2021/11/19 10:53:11;;;;;;;4.83;4.23;;;;;;;;;;4956783;29;20679;-86
2021/11/19 10:56:12;;;;;;;5.37;4.87;;;;;;;;;;4957019;29;20614;-86
2021/11/19 10:58:54;;;;;;;7.77;4.07;;;;;;;;;;4891725;29;20201;-86
2021/11/19 11:01:27;;;;;;;5.57;4.97;;;;;;;;;;4956905;29;20205;-86
2021/11/19 11:04:03;;;;;;;6.47;4.67;;;;;;;;;;4956620;29;20320;-86
2021/11/19 11:06:46;;;;;;;5.83;4.93;;;;;;;;;;4956885;29;20185;-86
2021/11/19 11:09:30;;;;;;;7.00;6.03;;;;;;;;;;4956757;29;20194;-87
2021/11/19 11:12:13;;;;;;;13.03;7.73;;;;;;;;;;4955087;29;20619;-86
2021/11/19 11:14:43;;;;;;;4.90;4.50;;;;;;;;;;4956864;29;20600;-86
2021/11/19 11:17:25;;;;;;;4.30;3.90;;;;;;;;;;4956659;29;20210;-85
2021/11/19 11:19:55;;;;;;;7.07;5.73;;;;;;;;;;4956358;29;20650;-86
2021/11/19 11:22:29;;;;;;;7.60;4.87;;;;;;;;;;4956730;29;20277;-86
2021/11/19 11:25:01;;;;;;;7.40;5.00;;;;;;;;;;4956697;29;20217;-86
2021/11/19 11:27:42;;;;;;;8.00;4.90;;;;;;;;;;4956109;29;20194;-86
2021/11/19 11:30:12;;;;;;;6.20;5.27;;;;;;;;;;4956235;29;20659;-86
2021/11/19 11:32:53;;;;;;;5.63;4.60;;;;;;;;;;4956584;29;20209;-86
2021/11/19 11:35:32;;;;;;;5.20;4.47;;;;;;;;;;4956052;29;20222;-86
2021/11/19 11:38:16;;;;;;;6.47;5.07;;;;;;;;;;4956161;29;20276;-86
2021/11/19 11:40:56;;;;;;;4.93;4.53;;;;;;;;;;4955831;29;20197;-87
2021/11/19 11:43:33;;;;;;;5.73;5.13;;;;;;;;;;4956057;29;20194;-86
2021/11/19 11:46:22;;;;;;;5.57;5.03;;;;;;;;;;4955410;28;20638;-86
2021/11/19 11:48:59;;;;;;;17.20;6.30;;;;;;;;;;4956165;29;20198;-86
2021/11/19 11:51:44;;;;;;;7.53;4.83;;;;;;;;;;4955994;29;20284;-86
2021/11/19 11:54:19;;;;;;;6.97;6.27;;;;;;;;;;4955721;29;20673;-86
2021/11/19 11:56:48;;;;;;;5.03;4.53;;;;;;;;;;4955542;29;20284;-86
2021/11/19 11:59:20;;;;;;;6.37;5.40;;;;;;;;;;4955867;29;20382;-86
2021/11/19 12:01:51;;;;;;;7.60;6.17;;;;;;;;;;4955565;29;20201;-86
2021/11/19 12:04:27;;;;;;;6.43;5.03;;;;;;;;;;4955641;29;20567;-86
2021/11/19 12:06:58;;;;;;;6.17;4.53;;;;;;;;;;4955548;29;20233;-86
2021/11/19 12:09:32;;;;;;;9.90;6.53;;;;;;;;;;4955817;29;20190;-86
2021/11/19 12:12:18;;;;;;;8.53;7.33;;;;;;;;;;4955349;29;20245;-86
2021/11/19 12:14:51;;;;;;;7.83;6.20;;;;;;;;;;4955610;29;20582;-86
2021/11/19 12:17:29;;;;;;;7.37;6.10;;;;;;;;;;4955365;29;20228;-86
2021/11/19 12:20:05;;;;;;;7.43;5.90;;;;;;;;;;4955456;29;20284;-85
2021/11/19 12:22:37;;;;;;;6.70;6.00;;;;;;;;;;4955479;29;20221;-85
2021/11/19 12:25:20;;;;;;;9.33;5.20;;;;;;;;;;4955145;29;20190;-86
2021/11/19 12:27:51;;;;;;;8.47;5.40;;;;;;;;;;4955466;29;20547;-86
2021/11/19 12:30:28;;;;;;;4.73;4.23;;;;;;;;;;4955280;29;20185;-87
2021/11/19 12:32:58;;;;;;;5.50;5.00;;;;;;;;;;4955160;29;20229;-86
2021/11/19 12:35:28;;;;;;;4.97;4.53;;;;;;;;;;4954981;29;20241;-87
2021/11/19 12:38:04;;;;;;;5.07;4.60;;;;;;;;;;4954983;29;20201;-86
2021/11/19 12:40:37;;;;;;;6.40;5.73;;;;;;;;;;4954976;29;20280;-86
2021/11/19 12:43:25;;;;;;;7.30;5.53;;;;;;;;;;4954833;29;20194;-87
2021/11/19 12:45:57;;;;;;;5.50;4.80;;;;;;;;;;4955207;29;20186;-87
2021/11/19 12:48:31;;;;;;;6.83;4.87;;;;;;;;;;4955609;29;20216;-87
2021/11/19 12:51:07;;;;;;;5.67;5.17;;;;;;;;;;4954634;29;20678;-87
2021/11/19 12:53:57;;;;;;;7.07;5.43;;;;;;;;;;4955051;29;20629;-87
2021/11/19 12:56:37;;;;;;;4.70;4.13;;;;;;;;;;4954892;28;20548;-86
2021/11/19 12:59:13;;;;;;;8.83;5.60;;;;;;;;;;4954668;29;20190;-85
2021/11/19 13:01:53;;;;;;;6.07;5.47;;;;;;;;;;4954758;29;20190;-86
2021/11/19 13:04:30;;;;;;;7.20;6.50;;;;;;;;;;4955040;29;20633;-87
2021/11/19 13:07:05;;;;;;;5.60;5.00;;;;;;;;;;4954893;29;20661;-86
2021/11/19 13:09:54;;;;;;;6.07;5.33;;;;;;;;;;4954511;29;20249;-86
2021/11/19 13:12:37;;;;;;;7.83;5.87;;;;;;;;;;4954591;29;20197;-87
2021/11/19 13:15:30;;;;;;;4.97;4.47;;;;;;;;;;4954899;29;20249;-87
2021/11/19 13:18:01;;;;;;;7.47;5.83;;;;;;;;;;4954720;29;20222;-88
2021/11/19 13:21:03;;;;;;;8.90;7.23;;;;;;;;;;4954257;28;20198;-87
2021/11/19 13:23:41;;;;;;;9.37;8.03;;;;;;;;;;4954562;29;20201;-86
2021/11/19 13:26:40;;;;;;;5.83;5.33;;;;;;;;;;4954969;28;20228;-86
2021/11/19 13:29:48;;;;;;;6.03;5.43;;;;;;;;;;4947644;28;20727;-86
2021/11/19 13:32:44;;;;;;;5.63;4.90;;;;;;;;;;4933124;28;20201;-86
2021/11/19 13:35:14;;;;;;;5.40;4.63;;;;;;;;;;4954225;29;20214;-86
2021/11/19 13:38:12;;;;;;;5.37;4.73;;;;;;;;;;4954209;29;20334;-86
2021/11/19 13:40:48;;;;;;;6.13;5.40;;;;;;;;;;4954635;28;20647;-87
2021/11/19 13:43:48;;;;;;;6.70;5.77;;;;;;;;;;4954146;29;20236;-86
2021/11/19 13:46:34;;;;;;;7.43;5.40;;;;;;;;;;4954542;29;20586;-87
2021/11/19 13:49:30;;;;;;;7.57;5.80;;;;;;;;;;4954112;29;20218;-86
2021/11/19 13:52:02;;;;;;;5.47;4.97;;;;;;;;;;4938049;29;20296;-87
2021/11/19 13:54:34;;;;;;;6.83;5.10;;;;;;;;;;4953998;29;20225;-87
2021/11/19 13:57:07;;;;;;;10.50;8.27;;;;;;;;;;4953889;29;20229;-85
2021/11/19 13:59:53;;;;;;;9.23;7.33;;;;;;;;;;4953722;29;20646;-86
2021/11/19 14:02:37;;;;;;;10.63;6.57;;;;;;;;;;4953498;29;20332;-86
2021/11/19 14:05:19;;;;;;;7.70;6.90;;;;;;;;;;4954393;29;20186;-85
2021/11/19 14:07:55;;;;;;;13.30;10.27;;;;;;;;;;4953688;28;20249;-86
2021/11/19 14:10:31;;;;;;;14.10;12.43;;;;;;;;;;4957376;29;20194;-86
2021/11/19 14:13:07;;;;;;;8.27;7.50;;;;;;;;;;4957261;29;20200;-85
2021/11/19 14:15:36;;;;;;;8.27;6.40;;;;;;;;;;4957460;29;20220;-86
2021/11/19 14:18:31;;;;;;;7.40;6.70;;;;;;;;;;4957309;29;20201;-86
2021/11/19 14:23:52;;;;;;;8.00;6.17;;;;;;;;;;4957274;29;20181;-86
2021/11/19 14:26:25;;;;;;;6.47;5.77;;;;;;;;;;4957228;28;20256;-85
2021/11/19 14:28:55;;;;;;;10.07;6.73;;;;;;;;;;4957327;29;20222;-84
2021/11/19 14:31:23;;;;;;;7.70;6.43;;;;;;;;;;4957266;28;20222;-86
2021/11/19 14:33:59;;;;;;;7.17;6.40;;;;;;;;;;4956911;28;20198;-84
2021/11/19 14:36:29;;;;;;;13.10;11.57;;;;;;;;;;4957206;29;20314;-86
2021/11/19 14:39:02;;;;;;;10.80;9.70;;;;;;;;;;4957041;29;20202;-86
2021/11/19 14:41:39;;;;;;;16.03;13.17;;;;;;;;;;4957260;28;20194;-86
2021/11/19 14:44:13;;;;;;;16.43;13.27;;;;;;;;;;4956913;28;20198;-86
2021/11/19 14:46:45;;;;;;;18.50;15.53;;;;;;;;;;4957207;29;20194;-86
2021/11/19 14:49:21;;;;;;;13.57;11.77;;;;;;;;;;4957097;29;20685;-87
2021/11/19 14:51:50;;;;;;;18.33;10.17;;;;;;;;;;4956953;29;20189;-86
2021/11/19 14:54:32;;;;;;;12.47;7.80;;;;;;;;;;4956643;29;20685;-86
2021/11/19 14:57:03;;;;;;;19.70;8.17;;;;;;;;;;4956632;28;20260;-85
2021/11/19 14:59:47;;;;;;;13.20;9.27;;;;;;;;;;4974994;28;20207;-86
2021/11/19 15:02:28;;;;;;;11.00;9.93;;;;;;;;;;4976140;28;20779;-86
2021/11/19 15:04:57;;;;;;;12.10;9.70;;;;;;;;;;4975986;28;20197;-86
2021/11/19 15:07:40;;;;;;;11.20;8.53;;;;;;;;;;4975975;28;20673;-86
2021/11/19 15:10:12;;;;;;;10.67;8.50;;;;;;;;;;4976159;28;20185;-86
2021/11/19 15:12:41;;;;;;;10.13;9.03;;;;;;;;;;4975874;28;20661;-86
2021/11/19 15:15:17;;;;;;;17.47;9.97;;;;;;;;;;4975757;28;20224;-84
2021/11/19 15:17:47;;;;;;;20.80;10.77;;;;;;;;;;4976000;28;20181;-86